Time;durP1;ratioP1;P1;durP2;ratioP2;P2;SDS_P1;SDS_P2;PMS_P1;PMS_P2;Temp;Humidity;BMP_temperature;BMP_pressure;BME280_temperature;BME280_humidity;BME280_pressure;Samples;Min_cycle;Max_cycle;Signal;HPM_P1;HPM_P2
2021/06/19 00:00:48;;;;;;;13.80;12.50;;;;;;;21.55;69.67;100683.13;5096765;28;20073;-81
2021/06/19 00:03:15;;;;;;;15.25;13.80;;;;;;;21.51;69.87;100685.13;5083747;28;20134;-79
2021/06/19 00:05:42;;;;;;;14.98;13.55;;;;;;;21.54;69.64;100673.34;5088543;28;20062;-79
2021/06/19 00:08:10;;;;;;;14.48;13.07;;;;;;;21.44;70.07;100685.63;5070269;28;20052;-80
2021/06/19 00:10:36;;;;;;;13.48;12.35;;;;;;;21.38;70.83;100686.06;5067738;28;20595;-79
2021/06/19 00:13:09;;;;;;;14.43;13.07;;;;;;;21.41;70.50;100680.47;5086013;28;20097;-81
2021/06/19 00:15:36;;;;;;;15.20;13.73;;;;;;;21.34;70.88;100683.53;5091398;28;20136;-81
2021/06/19 00:18:08;;;;;;;16.17;14.35;;;;;;;21.38;70.59;100686.06;5073817;28;20381;-80
2021/06/19 00:20:34;;;;;;;15.77;14.38;;;;;;;21.28;70.65;100686.66;5096312;28;20572;-81
2021/06/19 00:23:03;;;;;;;15.80;14.40;;;;;;;21.21;70.29;100679.91;5094457;28;20032;-79
2021/06/19 00:25:30;;;;;;;14.07;12.95;;;;;;;21.14;71.18;100678.56;5097097;28;20040;-81
2021/06/19 00:27:57;;;;;;;15.20;13.82;;;;;;;21.16;70.98;100676.66;5071386;28;20100;-80
2021/06/19 00:30:29;;;;;;;13.48;12.27;;;;;;;21.07;71.40;100683.47;5097934;28;20116;-80
2021/06/19 00:32:56;;;;;;;15.00;13.70;;;;;;;21.06;71.16;100673.69;5077014;28;20431;-81
2021/06/19 00:35:23;;;;;;;15.05;13.32;;;;;;;21.03;70.93;100676.59;5092592;28;20032;-82
2021/06/19 00:37:51;;;;;;;15.82;13.65;;;;;;;20.95;71.31;100668.16;5080844;28;20422;-80
2021/06/19 00:40:19;;;;;;;14.77;13.38;;;;;;;20.88;71.25;100668.63;5062977;28;20055;-79
2021/06/19 00:42:59;;;;;;;14.85;13.48;;;;;;;20.84;71.47;100665.25;5070717;28;20127;-82
2021/06/19 00:45:33;;;;;;;14.88;13.68;;;;;;;20.82;71.46;100666.31;5095797;28;20044;-80
2021/06/19 00:48:06;;;;;;;14.25;13.05;;;;;;;20.75;71.70;100674.75;5092802;28;20420;-80
2021/06/19 00:50:33;;;;;;;15.43;13.93;;;;;;;20.66;72.10;100661.03;5068682;28;20625;-81
2021/06/19 00:53:00;;;;;;;14.40;13.20;;;;;;;20.61;72.49;100663.16;5096155;28;20100;-80
2021/06/19 00:55:26;;;;;;;15.63;13.98;;;;;;;20.65;72.50;100662.88;5088365;28;20044;-79
2021/06/19 00:57:53;;;;;;;15.70;14.15;;;;;;;20.58;72.88;100668.72;5076062;28;20496;-81
2021/06/19 01:00:23;;;;;;;14.80;13.40;;;;;;;20.56;73.05;100662.59;5070009;28;20611;-80
2021/06/19 01:02:53;;;;;;;15.77;14.27;;;;;;;20.51;72.96;100655.69;5087869;28;20036;-80
2021/06/19 01:05:24;;;;;;;16.33;14.70;;;;;;;20.47;72.90;100651.47;5080153;28;20142;-79
2021/06/19 01:07:52;;;;;;;15.88;14.30;;;;;;;20.43;73.08;100657.06;5094310;28;20849;-80
2021/06/19 01:10:21;;;;;;;16.35;14.82;;;;;;;20.34;73.87;100660.31;5082092;28;20075;-81
2021/06/19 01:12:48;;;;;;;15.68;14.18;;;;;;;20.29;74.42;100651.69;5095059;28;20174;-81
2021/06/19 01:15:15;;;;;;;16.70;15.20;;;;;;;20.24;74.43;100650.13;5076337;28;20040;-80
2021/06/19 01:17:43;;;;;;;15.60;14.10;;;;;;;20.22;74.95;100651.19;5084743;28;20058;-81
2021/06/19 01:20:15;;;;;;;16.63;15.07;;;;;;;20.20;74.64;100650.44;5070985;28;20035;-80
2021/06/19 01:22:48;;;;;;;15.88;14.38;;;;;;;20.20;74.67;100645.06;5090786;28;20134;-81
2021/06/19 01:25:23;;;;;;;16.40;14.90;;;;;;;20.20;74.25;100643.25;5073537;28;20515;-80
2021/06/19 01:27:52;;;;;;;16.77;15.25;;;;;;;20.12;74.89;100640.16;5076157;28;20039;-80
2021/06/19 01:30:25;;;;;;;15.82;14.38;;;;;;;20.00;75.83;100645.38;5072463;28;20067;-80
2021/06/19 01:32:55;;;;;;;15.30;13.85;;;;;;;19.97;75.77;100654.50;5064649;28;20040;-80
2021/06/19 01:35:24;;;;;;;16.65;15.07;;;;;;;19.98;76.21;100653.53;5080139;28;20070;-79
2021/06/19 01:37:56;;;;;;;20.92;15.18;;;;;;;20.00;76.07;100656.97;5069204;28;20047;-81
2021/06/19 01:40:28;;;;;;;15.55;13.95;;;;;;;19.93;76.30;100655.63;5088557;28;20070;-81
2021/06/19 01:42:57;;;;;;;16.02;14.43;;;;;;;19.96;76.03;100648.25;5071017;28;20099;-80
2021/06/19 01:45:26;;;;;;;17.27;15.68;;;;;;;19.94;75.84;100644.81;5096564;28;20039;-78
2021/06/19 01:47:53;;;;;;;16.73;15.25;;;;;;;19.92;76.41;100646.69;5086140;28;20437;-79
2021/06/19 01:50:27;;;;;;;17.48;15.85;;;;;;;19.81;76.77;100640.25;5078873;28;20044;-78
2021/06/19 01:52:55;;;;;;;16.27;14.77;;;;;;;19.76;77.02;100645.91;5096214;28;20048;-80
2021/06/19 01:55:26;;;;;;;15.77;14.25;;;;;;;19.76;76.68;100647.69;5087357;28;21117;-79
2021/06/19 01:57:57;;;;;;;17.05;15.50;;;;;;;19.78;76.54;100645.81;5072125;28;20072;-80
2021/06/19 02:00:26;;;;;;;15.82;14.32;;;;;;;19.67;77.17;100641.06;5081918;28;20096;-79
2021/06/19 02:02:57;;;;;;;17.15;15.60;;;;;;;19.72;76.94;100638.13;5085126;28;20055;-79
2021/06/19 02:05:25;;;;;;;17.60;16.00;;;;;;;19.72;76.23;100630.09;5070164;28;20064;-79
2021/06/19 02:08:01;;;;;;;17.00;15.20;;;;;;;19.61;76.92;100626.22;5096525;28;20432;-80
2021/06/19 02:10:30;;;;;;;16.00;14.48;;;;;;;19.60;77.12;100631.69;5082756;28;20924;-79
2021/06/19 02:12:58;;;;;;;15.85;14.32;;;;;;;19.55;77.38;100639.94;5097271;28;20488;-80
2021/06/19 02:15:28;;;;;;;16.63;15.00;;;;;;;19.54;77.44;100635.53;5070926;28;20125;-80
2021/06/19 02:17:58;;;;;;;17.38;15.70;;;;;;;19.47;77.82;100636.84;5083157;28;20141;-81
2021/06/19 02:20:26;;;;;;;16.35;14.85;;;;;;;19.46;77.93;100629.75;5106206;28;20798;-80
2021/06/19 02:22:54;;;;;;;17.40;15.80;;;;;;;19.44;78.07;100634.34;5101773;28;20043;-80
2021/06/19 02:25:23;;;;;;;16.67;15.18;;;;;;;19.41;78.34;100643.41;5099790;28;20031;-80
2021/06/19 02:27:52;;;;;;;15.93;14.35;;;;;;;19.35;78.40;100641.09;5078816;28;20600;-80
2021/06/19 02:30:28;;;;;;;17.40;15.65;;;;;;;19.38;78.27;100629.34;5084559;28;20039;-78
2021/06/19 02:32:55;;;;;;;18.10;16.40;;;;;;;19.27;79.04;100629.97;5081517;28;20431;-79
2021/06/19 02:35:26;;;;;;;16.83;15.27;;;;;;;19.22;79.55;100631.16;5098645;28;20089;-80
2021/06/19 02:37:56;;;;;;;17.45;15.73;;;;;;;19.25;79.09;100621.13;5104981;28;20048;-80
2021/06/19 02:40:26;;;;;;;17.63;16.00;;;;;;;19.32;78.50;100625.19;5079243;28;20051;-79
2021/06/19 02:42:53;;;;;;;16.90;15.25;;;;;;;19.30;79.00;100629.78;5079069;28;20051;-81
2021/06/19 02:45:20;;;;;;;16.73;15.15;;;;;;;19.15;79.53;100625.28;5095342;28;20044;-79
2021/06/19 02:47:54;;;;;;;16.73;15.23;;;;;;;19.12;79.54;100631.69;5098157;28;20115;-80
2021/06/19 02:50:30;;;;;;;16.65;15.05;;;;;;;19.08;80.26;100634.59;5088631;28;20398;-79
2021/06/19 02:52:58;;;;;;;15.90;14.50;;;;;;;19.05;80.79;100632.09;5099252;28;20427;-81
2021/06/19 02:55:30;;;;;;;16.85;15.35;;;;;;;19.05;80.45;100640.16;5104153;28;20065;-78
2021/06/19 02:57:57;;;;;;;17.55;15.93;;;;;;;19.10;80.05;100638.94;5098284;28;20061;-80
2021/06/19 03:00:24;;;;;;;17.27;15.55;;;;;;;19.09;79.91;100650.63;5085699;28;20066;-80
2021/06/19 03:02:51;;;;;;;17.23;15.73;;;;;;;19.09;79.78;100653.28;5099710;28;20058;-79
2021/06/19 03:05:23;;;;;;;16.65;15.05;;;;;;;19.01;80.37;100643.97;5074429;28;20036;-79
2021/06/19 03:07:51;;;;;;;17.10;15.60;;;;;;;19.02;80.11;100651.03;5087236;28;20040;-80
2021/06/19 03:10:20;;;;;;;16.48;14.98;;;;;;;19.00;80.91;100650.22;5069231;28;20048;-81
2021/06/19 03:12:48;;;;;;;18.02;16.13;;;;;;;19.00;80.39;100653.81;5083656;28;20107;-80
2021/06/19 03:15:15;;;;;;;17.98;16.23;;;;;;;18.95;81.20;100655.84;5101627;28;20048;-80
2021/06/19 03:17:41;;;;;;;18.05;16.17;;;;;;;19.00;81.28;100645.78;5093082;28;20039;-80
2021/06/19 03:20:10;;;;;;;18.27;16.48;;;;;;;18.98;81.46;100641.44;5108210;28;20044;-80
2021/06/19 03:23:04;;;;;;;17.40;15.63;;;;;;;19.01;81.21;100643.97;5107659;28;20114;-80
2021/06/19 03:25:34;;;;;;;16.63;15.13;;;;;;;19.02;80.97;100645.69;5078761;28;20039;-81
2021/06/19 03:28:03;;;;;;;16.67;15.27;;;;;;;18.97;81.36;100645.91;5117842;28;20084;-80
2021/06/19 03:30:33;;;;;;;16.90;15.30;;;;;;;18.93;81.76;100647.06;5098694;28;20055;-80
2021/06/19 03:33:00;;;;;;;17.35;15.65;;;;;;;19.00;81.30;100645.78;5092070;28;20548;-78
2021/06/19 03:35:26;;;;;;;17.45;15.90;;;;;;;19.03;81.59;100637.56;5092572;28;20246;-78
2021/06/19 03:37:54;;;;;;;16.85;15.25;;;;;;;19.04;81.48;100643.78;5115241;27;20047;-79
2021/06/19 03:40:22;;;;;;;19.02;17.23;;;;;;;19.06;81.57;100647.22;5104199;28;20032;-82
2021/06/19 03:42:50;;;;;;;31.73;17.50;;;;;;;19.02;81.92;100646.53;5093133;28;20088;-78
2021/06/19 03:45:18;;;;;;;60.38;22.10;;;;;;;19.06;81.85;100641.88;5080209;28;20032;-79
2021/06/19 03:47:45;;;;;;;51.38;20.42;;;;;;;19.00;82.21;100642.19;5072058;28;20040;-81
2021/06/19 03:50:15;;;;;;;52.78;21.42;;;;;;;19.05;83.20;100635.66;5101846;28;20396;-79
2021/06/19 03:52:47;;;;;;;29.42;18.02;;;;;;;19.10;82.23;100646.97;5097978;28;20634;-79
2021/06/19 03:55:14;;;;;;;27.63;16.75;;;;;;;19.15;82.31;100638.66;5093311;28;20556;-81
2021/06/19 03:57:41;;;;;;;26.45;17.02;;;;;;;19.14;82.43;100639.63;5138724;22;20457;-80
2021/06/19 04:00:09;;;;;;;24.30;16.45;;;;;;;19.23;82.38;100640.91;5030857;28;20052;-80
2021/06/19 04:02:36;;;;;;;17.52;15.57;;;;;;;19.16;82.73;100642.22;5037707;28;20057;-79
2021/06/19 04:05:04;;;;;;;17.60;15.77;;;;;;;19.15;83.23;100637.81;5055011;28;20067;-80
2021/06/19 04:07:30;;;;;;;17.45;15.63;;;;;;;19.30;82.66;100628.91;5071168;28;20036;-80
2021/06/19 04:09:57;;;;;;;18.50;16.48;;;;;;;19.35;82.79;100638.41;5044829;28;20385;-79
2021/06/19 04:12:24;;;;;;;19.83;17.27;;;;;;;19.41;82.15;100637.19;5053698;28;20051;-80
2021/06/19 04:14:51;;;;;;;18.38;16.48;;;;;;;19.43;82.37;100631.75;5037309;28;20055;-79
2021/06/19 04:17:18;;;;;;;18.88;17.02;;;;;;;19.51;83.00;100630.38;5051153;28;20460;-79
2021/06/19 04:19:46;;;;;;;19.05;16.77;;;;;;;19.64;81.67;100628.72;5054249;28;20044;-80
2021/06/19 04:22:13;;;;;;;16.88;15.18;;;;;;;19.61;81.36;100634.25;5054137;28;20041;-78
2021/06/19 04:24:41;;;;;;;16.27;14.85;;;;;;;19.65;80.44;100626.91;5064356;28;20127;-80
2021/06/19 04:27:19;;;;;;;18.13;16.23;;;;;;;19.73;80.87;100624.63;5053581;28;20045;-80
2021/06/19 04:29:47;;;;;;;17.67;15.98;;;;;;;19.81;80.89;100626.84;5047965;28;20047;-78
2021/06/19 04:32:14;;;;;;;15.50;14.10;;;;;;;19.85;81.05;100631.09;5059967;28;20044;-79
2021/06/19 04:34:42;;;;;;;16.80;15.20;;;;;;;19.97;79.70;100630.34;5069669;28;20032;-79
2021/06/19 04:37:14;;;;;;;15.90;14.30;;;;;;;20.05;78.33;100635.25;5052087;28;20493;-80
2021/06/19 04:39:55;;;;;;;14.65;13.27;;;;;;;20.12;78.63;100639.31;5053963;28;20051;-80
2021/06/19 04:42:24;;;;;;;15.52;13.95;;;;;;;20.27;77.92;100637.53;5081875;28;20469;-80
2021/06/19 04:47:24;;;;;;;16.52;15.02;;;;;;;20.41;77.21;100626.78;5069158;28;20033;-79
2021/06/19 04:49:54;;;;;;;15.00;13.65;;;;;;;20.44;77.13;100626.66;5069465;28;20040;-80
2021/06/19 04:52:22;;;;;;;15.23;13.82;;;;;;;20.49;77.45;100624.53;5052080;28;20044;-79
2021/06/19 04:54:49;;;;;;;16.10;14.60;;;;;;;20.60;77.45;100626.53;5053704;28;20086;-79
2021/06/19 04:57:15;;;;;;;14.40;13.10;;;;;;;20.59;77.29;100625.66;5050696;28;20071;-80
2021/06/19 04:59:42;;;;;;;14.55;13.05;;;;;;;20.61;77.39;100614.84;5052531;28;20056;-80
2021/06/19 05:02:09;;;;;;;14.00;12.63;;;;;;;20.67;78.01;100622.50;5070018;28;20094;-79
2021/06/19 05:04:35;;;;;;;16.08;14.38;;;;;;;20.80;77.53;100631.53;5053974;28;20070;-80
2021/06/19 05:07:02;;;;;;;15.07;13.68;;;;;;;20.80;77.79;100629.69;5054475;28;20044;-81
2021/06/19 05:09:29;;;;;;;15.55;14.07;;;;;;;20.96;75.89;100624.22;5035711;28;20650;-80
2021/06/19 05:11:56;;;;;;;16.30;14.60;;;;;;;21.03;76.01;100630.06;5053525;28;20489;-80
2021/06/19 05:14:22;;;;;;;14.75;13.32;;;;;;;21.13;75.75;100624.94;5067042;28;20029;-80
2021/06/19 05:16:49;;;;;;;15.25;13.68;;;;;;;21.59;72.82;100630.88;5049645;28;20387;-79
2021/06/19 05:19:18;;;;;;;14.15;12.60;;;;;;;22.45;70.02;100629.44;5049132;28;20037;-80
2021/06/19 05:21:45;;;;;;;13.98;12.75;;;;;;;23.08;66.82;100624.09;5052342;28;20063;-80
2021/06/19 05:24:12;;;;;;;14.82;13.48;;;;;;;23.53;66.17;100626.06;5066098;28;20094;-78
2021/06/19 05:26:39;;;;;;;14.25;12.95;;;;;;;23.87;64.14;100626.22;5053100;28;20109;-78
2021/06/19 05:29:06;;;;;;;13.52;12.15;;;;;;;23.84;62.97;100624.63;5069223;28;20393;-79
2021/06/19 05:31:33;;;;;;;13.93;12.52;;;;;;;23.61;64.10;100620.13;5069107;28;20048;-79
2021/06/19 05:33:59;;;;;;;13.15;11.60;;;;;;;23.46;64.20;100626.66;5053861;28;20448;-79
2021/06/19 05:36:26;;;;;;;11.88;10.77;;;;;;;23.37;64.49;100630.00;5067917;28;20039;-80
2021/06/19 05:38:53;;;;;;;13.60;12.40;;;;;;;23.26;65.74;100626.28;5069450;28;20062;-82
2021/06/19 05:41:20;;;;;;;12.70;11.40;;;;;;;23.37;65.43;100625.47;5069688;28;20056;-81
2021/06/19 05:43:46;;;;;;;12.88;11.77;;;;;;;24.07;63.93;100622.88;5052868;28;20066;-80
2021/06/19 05:46:13;;;;;;;12.30;11.10;;;;;;;26.00;56.39;100618.88;5066325;28;20036;-82
2021/06/19 05:48:40;;;;;;;10.80;9.90;;;;;;;28.26;49.94;100627.44;5053325;28;20051;-79
2021/06/19 05:51:07;;;;;;;10.88;9.98;;;;;;;30.74;44.01;100626.03;5068829;28;20063;-81
2021/06/19 05:53:33;;;;;;;10.63;9.63;;;;;;;32.40;40.51;100627.97;5053479;28;20051;-82
2021/06/19 05:56:03;;;;;;;10.73;9.82;;;;;;;33.84;35.98;100625.78;5051947;28;20450;-81
2021/06/19 05:58:30;;;;;;;9.18;8.38;;;;;;;34.17;35.24;100631.00;5055666;28;20131;-84
2021/06/19 06:00:56;;;;;;;9.35;8.52;;;;;;;34.84;35.18;100631.00;5068860;28;20040;-80
2021/06/19 06:03:23;;;;;;;9.45;8.55;;;;;;;34.84;34.86;100631.00;5069948;28;20071;-82
2021/06/19 06:05:50;;;;;;;10.07;9.18;;;;;;;34.26;33.84;100622.50;5051959;28;20505;-78
2021/06/19 06:08:18;;;;;;;9.50;8.75;;;;;;;33.57;36.11;100629.91;5038543;28;20037;-81
2021/06/19 06:10:45;;;;;;;9.70;8.90;;;;;;;32.83;37.12;100639.47;5069147;28;20177;-82
2021/06/19 06:13:12;;;;;;;10.18;9.23;;;;;;;32.37;37.65;100634.63;5054299;28;20489;-81
2021/06/19 06:15:38;;;;;;;10.00;9.20;;;;;;;31.96;39.12;100636.50;5053018;28;20512;-82
2021/06/19 06:18:05;;;;;;;9.65;8.85;;;;;;;31.70;41.00;100633.91;5053913;28;20051;-82
2021/06/19 06:20:32;;;;;;;10.77;9.80;;;;;;;30.66;40.48;100639.63;5053114;28;20048;-82
2021/06/19 06:22:59;;;;;;;10.05;9.25;;;;;;;30.93;43.68;100632.25;5038858;28;20040;-82
2021/06/19 06:25:25;;;;;;;11.48;10.45;;;;;;;30.80;43.03;100632.72;5037141;28;20040;-82
2021/06/19 06:27:52;;;;;;;10.38;9.43;;;;;;;30.78;41.79;100632.03;5037736;28;20045;-82
2021/06/19 06:30:19;;;;;;;10.27;9.30;;;;;;;30.68;42.16;100634.88;5035552;28;20561;-82
2021/06/19 06:32:46;;;;;;;11.27;10.38;;;;;;;30.55;41.23;100621.66;5037649;28;20040;-82
2021/06/19 06:35:13;;;;;;;10.50;9.60;;;;;;;30.55;42.00;100623.53;5052802;28;20436;-83
2021/06/19 06:37:41;;;;;;;11.45;10.35;;;;;;;30.55;41.77;100631.72;5034269;28;20040;-82
2021/06/19 06:40:10;;;;;;;11.32;10.30;;;;;;;30.66;41.43;100633.34;5061624;28;20038;-82
2021/06/19 06:42:40;;;;;;;9.90;8.90;;;;;;;30.72;41.75;100636.28;5077007;28;20044;-82
2021/06/19 06:45:09;;;;;;;11.45;10.45;;;;;;;30.68;40.97;100628.56;5054976;28;20045;-82
2021/06/19 06:47:35;;;;;;;10.68;9.88;;;;;;;30.82;41.08;100634.28;5052685;28;20040;-82
2021/06/19 06:50:03;;;;;;;10.23;9.23;;;;;;;30.78;41.24;100626.59;5045212;28;20047;-82
2021/06/19 06:52:31;;;;;;;11.00;10.10;;;;;;;31.04;40.44;100627.38;5052490;28;20047;-81
2021/06/19 06:54:58;;;;;;;11.32;10.23;;;;;;;31.17;42.01;100626.91;5039554;28;20033;-82
2021/06/19 06:57:24;;;;;;;10.18;9.27;;;;;;;31.35;40.67;100627.66;5032507;28;20043;-81
2021/06/19 06:59:51;;;;;;;10.43;9.55;;;;;;;31.51;40.25;100623.28;5053077;28;20071;-81
2021/06/19 07:02:18;;;;;;;10.48;9.55;;;;;;;31.66;40.58;100635.25;5038929;28;20417;-81
2021/06/19 07:04:45;;;;;;;10.50;9.60;;;;;;;31.78;39.56;100633.91;5046607;28;20041;-81
2021/06/19 07:07:11;;;;;;;10.70;9.88;;;;;;;31.88;39.36;100631.91;5066798;28;20397;-81
2021/06/19 07:09:38;;;;;;;10.38;9.43;;;;;;;31.94;39.98;100639.38;5050557;28;20036;-82
2021/06/19 07:12:05;;;;;;;11.65;10.45;;;;;;;31.99;37.75;100635.31;5080797;28;20047;-82
2021/06/19 07:14:32;;;;;;;11.18;10.00;;;;;;;32.11;39.56;100639.38;5086422;28;20777;-82
2021/06/19 07:16:58;;;;;;;11.13;10.18;;;;;;;32.10;38.52;100632.22;5036289;28;20094;-81
2021/06/19 07:19:26;;;;;;;20.30;10.10;;;;;;;31.97;39.35;100637.38;5070712;28;20044;-80
2021/06/19 07:21:52;;;;;;;10.70;9.77;;;;;;;32.04;38.41;100632.94;5072943;28;20044;-80
2021/06/19 07:24:19;;;;;;;9.77;8.88;;;;;;;32.11;39.59;100626.56;5075960;28;20040;-81
2021/06/19 07:26:46;;;;;;;10.95;9.18;;;;;;;32.29;38.90;100633.72;5072025;28;20041;-81
2021/06/19 07:29:12;;;;;;;10.13;9.23;;;;;;;32.32;38.95;100634.28;5053919;28;20111;-82
2021/06/19 07:31:39;;;;;;;10.10;9.13;;;;;;;32.43;38.89;100631.19;5033664;28;20029;-80
2021/06/19 07:34:06;;;;;;;10.00;9.10;;;;;;;32.59;38.69;100630.28;5054017;28;20185;-82
2021/06/19 07:36:33;;;;;;;9.88;8.98;;;;;;;32.46;37.72;100635.47;5066358;28;20067;-81
2021/06/19 07:38:59;;;;;;;10.90;9.77;;;;;;;32.32;38.13;100639.75;5042555;28;20040;-79
2021/06/19 07:41:26;;;;;;;11.02;9.93;;;;;;;32.62;38.26;100629.94;5054101;28;20044;-81
2021/06/19 07:43:53;;;;;;;10.82;9.90;;;;;;;32.67;37.75;100634.91;5038892;28;20071;-83
2021/06/19 07:46:19;;;;;;;10.73;9.90;;;;;;;32.65;37.41;100635.06;5054302;28;20048;-81
2021/06/19 07:48:49;;;;;;;10.63;9.60;;;;;;;32.83;38.10;100636.72;5046045;28;20079;-83
2021/06/19 07:51:16;;;;;;;10.45;9.52;;;;;;;32.91;37.99;100637.59;5040505;28;20101;-81
2021/06/19 07:53:42;;;;;;;10.95;9.95;;;;;;;32.89;37.71;100641.53;5076935;28;20051;-82
2021/06/19 07:56:09;;;;;;;9.68;8.88;;;;;;;33.03;37.77;100644.34;5042288;28;20040;-83
2021/06/19 07:58:35;;;;;;;11.25;10.35;;;;;;;33.19;36.67;100631.63;5077154;28;20098;-82
2021/06/19 08:01:02;;;;;;;10.73;9.73;;;;;;;33.31;37.11;100638.44;5044963;28;20505;-81
2021/06/19 08:03:29;;;;;;;10.75;9.93;;;;;;;33.47;36.93;100635.63;5062641;28;20075;-82
2021/06/19 08:05:55;;;;;;;15.10;10.18;;;;;;;33.59;36.55;100634.16;5058671;28;20106;-80
2021/06/19 08:08:22;;;;;;;10.10;9.20;;;;;;;33.68;36.92;100632.22;5059456;28;20048;-84
2021/06/19 08:10:51;;;;;;;11.00;10.07;;;;;;;33.87;35.84;100637.19;5039341;28;20059;-82
2021/06/19 08:13:17;;;;;;;9.98;9.15;;;;;;;33.60;34.45;100622.16;5043539;28;20053;-83
2021/06/19 08:15:44;;;;;;;10.45;9.55;;;;;;;33.86;35.70;100629.16;5056446;28;20070;-82
2021/06/19 08:18:11;;;;;;;11.20;10.15;;;;;;;33.90;36.41;100630.56;5036170;28;20033;-79
2021/06/19 08:20:38;;;;;;;11.63;10.60;;;;;;;33.82;35.91;100625.97;5037837;28;20823;-81
2021/06/19 08:23:05;;;;;;;11.32;10.25;;;;;;;33.93;36.26;100629.31;5053825;28;20062;-80
2021/06/19 08:25:31;;;;;;;11.13;10.15;;;;;;;33.63;35.96;100622.84;5032875;28;20048;-80
2021/06/19 08:27:58;;;;;;;55.10;16.80;;;;;;;33.84;35.54;100617.53;5057151;28;20044;-81
2021/06/19 08:30:24;;;;;;;10.85;9.90;;;;;;;34.06;35.04;100618.59;5071585;28;20082;-80
2021/06/19 08:32:52;;;;;;;9.85;9.05;;;;;;;34.26;35.75;100617.03;5055876;28;20055;-82
2021/06/19 08:35:18;;;;;;;81.10;17.23;;;;;;;34.14;35.05;100622.13;5072072;28;20090;-83
2021/06/19 08:37:45;;;;;;;10.00;9.02;;;;;;;34.26;35.09;100618.91;5070705;28;20041;-83
2021/06/19 08:40:12;;;;;;;9.65;8.90;;;;;;;34.33;33.95;100611.66;5050475;28;20041;-81
2021/06/19 08:42:40;;;;;;;8.88;8.18;;;;;;;33.87;34.05;100611.69;5073018;28;20505;-82
2021/06/19 08:45:07;;;;;;;9.63;8.55;;;;;;;34.35;35.09;100609.56;5055307;28;20036;-82
2021/06/19 08:47:36;;;;;;;9.45;8.65;;;;;;;34.61;34.47;100612.72;5039247;28;20448;-81
2021/06/19 08:50:06;;;;;;;8.52;7.82;;;;;;;34.90;34.23;100614.66;5051579;28;20066;-83
2021/06/19 08:52:35;;;;;;;25.70;9.85;;;;;;;34.72;33.49;100611.41;5055208;28;20498;-82
2021/06/19 08:55:04;;;;;;;8.65;7.80;;;;;;;34.85;32.03;100616.25;5072720;28;20106;-83
2021/06/19 08:57:31;;;;;;;8.48;7.65;;;;;;;34.80;32.68;100611.31;5036712;28;20118;-82
2021/06/19 08:59:57;;;;;;;8.80;8.10;;;;;;;34.49;31.71;100617.00;5036338;28;20497;-82
2021/06/19 09:02:24;;;;;;;8.65;7.85;;;;;;;34.91;33.22;100613.63;5057275;28;20087;-81
2021/06/19 09:04:52;;;;;;;7.90;7.28;;;;;;;35.05;32.58;100614.63;5053716;28;20041;-82
2021/06/19 09:07:36;;;;;;;8.57;7.53;;;;;;;34.75;32.08;100619.28;5065954;28;20085;-83
2021/06/19 09:10:19;;;;;;;8.43;7.63;;;;;;;34.27;33.11;100615.13;5092674;28;20037;-83
2021/06/19 09:12:59;;;;;;;7.05;6.45;;;;;;;34.86;31.55;100616.03;5073072;28;20045;-82
2021/06/19 09:15:27;;;;;;;8.30;7.63;;;;;;;35.10;32.27;100601.19;5051515;28;20066;-83
2021/06/19 09:18:34;;;;;;;8.82;8.10;;;;;;;35.37;30.89;100604.22;5040579;28;20097;-82
2021/06/19 09:21:05;;;;;;;8.65;7.95;;;;;;;35.47;31.79;100602.88;5066473;28;20041;-83
2021/06/19 09:23:36;;;;;;;8.27;7.68;;;;;;;35.52;30.89;100597.66;5068778;28;20048;-83
2021/06/19 09:26:12;;;;;;;7.45;6.85;;;;;;;35.65;31.26;100596.97;5068133;28;20440;-82
2021/06/19 09:29:06;;;;;;;8.60;7.70;;;;;;;35.79;30.12;100601.53;5053795;28;20044;-83
2021/06/19 09:31:41;;;;;;;;;;;;;;;35.92;30.78;100598.09;5052074;28;20482;-84
2021/06/19 09:34:08;;;;;;;8.18;7.43;;;;;;;35.92;30.31;100602.75;5074509;28;20357;-83
2021/06/19 09:36:36;;;;;;;7.95;7.28;;;;;;;35.52;30.76;100602.31;5036354;28;20024;-85
2021/06/19 09:39:07;;;;;;;7.88;7.25;;;;;;;35.72;30.73;100600.59;5056255;28;20048;-85
2021/06/19 09:41:43;;;;;;;8.95;8.23;;;;;;;35.81;29.97;100601.31;5051053;28;20032;-81
2021/06/19 09:44:10;;;;;;;7.28;6.68;;;;;;;35.85;28.36;100601.78;5036915;28;21807;-86
2021/06/19 09:46:36;;;;;;;6.63;6.03;;;;;;;35.88;28.55;100598.63;5066750;28;20044;-84
2021/06/19 09:49:16;;;;;;;7.72;7.13;;;;;;;36.14;28.30;100598.03;5040393;28;20135;-83
2021/06/19 09:51:50;;;;;;;7.15;6.60;;;;;;;36.31;27.98;100599.44;5045692;28;20710;-83
2021/06/19 09:54:19;;;;;;;7.97;7.15;;;;;;;36.43;28.13;100599.78;5055423;28;20067;-82
2021/06/19 09:56:55;;;;;;;7.50;6.85;;;;;;;35.96;28.07;100604.03;5046544;28;20597;-83
2021/06/19 09:59:30;;;;;;;7.68;7.07;;;;;;;35.85;27.62;100599.03;5048094;28;20041;-83
2021/06/19 10:02:00;;;;;;;7.15;6.63;;;;;;;35.93;26.64;100597.03;5043099;28;20037;-82
2021/06/19 10:04:28;;;;;;;6.97;6.38;;;;;;;35.99;25.94;100599.00;5072045;28;20036;-83
2021/06/19 10:06:56;;;;;;;8.70;6.57;;;;;;;36.25;26.59;100600.25;5070112;28;20086;-82
2021/06/19 10:09:23;;;;;;;6.78;6.18;;;;;;;36.35;26.69;100589.75;5048001;28;20036;-81
2021/06/19 10:11:52;;;;;;;46.72;10.10;;;;;;;36.41;26.90;100591.72;5069338;28;20464;-81
2021/06/19 10:14:19;;;;;;;7.32;6.72;;;;;;;36.30;27.31;100595.84;5050413;28;20044;-83
2021/06/19 10:16:48;;;;;;;7.88;7.07;;;;;;;36.42;27.04;100590.69;5052755;28;20045;-82
2021/06/19 10:19:22;;;;;;;8.30;6.90;;;;;;;36.55;26.78;100592.66;5051355;28;20092;-82
2021/06/19 10:21:51;;;;;;;7.28;6.57;;;;;;;36.51;26.81;100577.59;5051225;28;20040;-83
2021/06/19 10:24:20;;;;;;;7.35;6.65;;;;;;;36.64;26.66;100584.00;5049715;28;20532;-82
2021/06/19 10:26:50;;;;;;;7.10;6.50;;;;;;;36.64;26.95;100577.66;5070510;28;20036;-81
2021/06/19 10:29:17;;;;;;;7.10;6.50;;;;;;;36.74;25.98;100580.88;5052151;28;20068;-82
2021/06/19 10:31:51;;;;;;;7.55;6.75;;;;;;;36.88;25.39;100579.94;5051966;28;20049;-84
2021/06/19 10:34:26;;;;;;;7.45;6.85;;;;;;;36.65;26.79;100579.34;5066886;28;20037;-84
2021/06/19 10:36:59;;;;;;;9.63;7.00;;;;;;;36.98;26.94;100574.03;5068741;28;20045;-82
2021/06/19 10:39:33;;;;;;;7.55;6.97;;;;;;;37.25;26.47;100572.25;5053985;28;20557;-83
2021/06/19 10:42:00;;;;;;;8.23;7.38;;;;;;;36.95;24.03;100565.34;5066881;28;20465;-84
2021/06/19 10:44:53;;;;;;;7.18;6.53;;;;;;;37.00;25.73;100563.69;5057622;28;20075;-83
2021/06/19 10:47:22;;;;;;;6.57;6.07;;;;;;;37.20;24.94;100569.25;5074979;28;20044;-84
2021/06/19 10:49:51;;;;;;;6.40;5.80;;;;;;;37.06;23.86;100565.59;5075355;28;20060;-85
2021/06/19 10:52:31;;;;;;;6.43;5.90;;;;;;;37.42;22.49;100567.22;5057332;28;20062;-83
2021/06/19 10:55:07;;;;;;;5.70;5.28;;;;;;;37.48;21.08;100567.22;5071025;28;20041;-82
2021/06/19 10:57:48;;;;;;;5.50;4.90;;;;;;;37.88;22.77;100561.78;5064882;28;20048;-84
2021/06/19 11:00:27;;;;;;;5.60;5.10;;;;;;;38.01;22.00;100558.16;5037083;28;20659;-83
2021/06/19 11:02:56;;;;;;;6.45;5.93;;;;;;;38.15;21.65;100556.22;5066945;28;20486;-84
2021/06/19 11:05:49;;;;;;;7.07;5.70;;;;;;;38.03;21.96;100562.41;5038937;28;20131;-83
2021/06/19 11:08:17;;;;;;;6.45;5.97;;;;;;;37.92;21.77;100548.38;5083339;28;20043;-82
2021/06/19 11:10:44;;;;;;;6.68;6.07;;;;;;;37.97;22.03;100560.50;5055567;28;20094;-88
2021/06/19 11:13:32;;;;;;;21.98;8.35;;;;;;;38.06;23.51;100554.75;5072653;28;20222;-85
2021/06/19 11:16:03;;;;;;;6.53;6.03;;;;;;;38.19;23.72;100565.78;5049233;28;20048;-86
2021/06/19 11:18:52;;;;;;;6.73;6.23;;;;;;;38.25;23.44;100573.22;5070615;28;20075;-84
2021/06/19 11:21:33;;;;;;;7.80;7.03;;;;;;;37.81;23.58;100568.34;5053443;28;20044;-83
2021/06/19 11:24:00;;;;;;;7.35;6.85;;;;;;;37.92;24.40;100567.69;5068043;28;20044;-84
2021/06/19 11:29:35;;;;;;;6.95;6.30;;;;;;;37.57;23.65;100553.22;5074526;28;20835;-82